sensor_id;sensor_type;location;lat;lon;timestamp;P1;durP1;ratioP1;P2;durP2;ratioP2
29570;SDS011;16814;52.118;11.436;2022-11-20T00:01:25;33.20;;;17.75;;
29570;SDS011;16814;52.118;11.436;2022-11-20T00:03:53;29.67;;;16.77;;
29570;SDS011;16814;52.118;11.436;2022-11-20T00:06:21;30.55;;;16.33;;
29570;SDS011;16814;52.118;11.436;2022-11-20T00:08:53;31.42;;;16.60;;
29570;SDS011;16814;52.118;11.436;2022-11-20T00:11:21;32.33;;;17.23;;
29570;SDS011;16814;52.118;11.436;2022-11-20T00:13:49;29.65;;;16.48;;
29570;SDS011;16814;52.118;11.436;2022-11-20T00:16:17;30.30;;;15.70;;
29570;SDS011;16814;52.118;11.436;2022-11-20T00:18:44;32.30;;;17.45;;
29570;SDS011;16814;52.118;11.436;2022-11-20T00:21:14;30.90;;;16.37;;
29570;SDS011;16814;52.118;11.436;2022-11-20T00:23:46;29.55;;;15.77;;
29570;SDS011;16814;52.118;11.436;2022-11-20T00:26:14;30.60;;;16.65;;
29570;SDS011;16814;52.118;11.436;2022-11-20T00:28:43;29.45;;;16.67;;
29570;SDS011;16814;52.118;11.436;2022-11-20T00:31:14;29.70;;;16.30;;
29570;SDS011;16814;52.118;11.436;2022-11-20T00:33:42;30.52;;;16.67;;
29570;SDS011;16814;52.118;11.436;2022-11-20T00:36:14;29.45;;;16.45;;
29570;SDS011;16814;52.118;11.436;2022-11-20T00:38:42;30.88;;;16.40;;
29570;SDS011;16814;52.118;11.436;2022-11-20T00:41:10;30.10;;;15.75;;
29570;SDS011;16814;52.118;11.436;2022-11-20T00:43:37;30.92;;;17.23;;
29570;SDS011;16814;52.118;11.436;2022-11-20T00:46:06;31.42;;;16.38;;
29570;SDS011;16814;52.118;11.436;2022-11-20T00:48:35;31.40;;;16.15;;
29570;SDS011;16814;52.118;11.436;2022-11-20T00:51:02;31.38;;;16.80;;
29570;SDS011;16814;52.118;11.436;2022-11-20T00:53:30;29.67;;;16.25;;
29570;SDS011;16814;52.118;11.436;2022-11-20T00:55:59;30.30;;;16.02;;
29570;SDS011;16814;52.118;11.436;2022-11-20T00:58:31;30.33;;;16.45;;
29570;SDS011;16814;52.118;11.436;2022-11-20T01:01:01;32.70;;;16.58;;
29570;SDS011;16814;52.118;11.436;2022-11-20T01:03:44;34.43;;;17.03;;
29570;SDS011;16814;52.118;11.436;2022-11-20T01:06:17;33.73;;;15.47;;
29570;SDS011;16814;52.118;11.436;2022-11-20T01:08:43;33.38;;;17.40;;
29570;SDS011;16814;52.118;11.436;2022-11-20T01:11:13;33.20;;;16.92;;
29570;SDS011;16814;52.118;11.436;2022-11-20T01:13:45;30.93;;;16.07;;
29570;SDS011;16814;52.118;11.436;2022-11-20T01:16:13;31.55;;;16.23;;
29570;SDS011;16814;52.118;11.436;2022-11-20T01:18:46;29.70;;;15.98;;
29570;SDS011;16814;52.118;11.436;2022-11-20T01:21:21;28.20;;;15.35;;
29570;SDS011;16814;52.118;11.436;2022-11-20T01:23:50;31.65;;;16.00;;
29570;SDS011;16814;52.118;11.436;2022-11-20T01:26:23;33.65;;;16.40;;
29570;SDS011;16814;52.118;11.436;2022-11-20T01:28:51;32.20;;;16.60;;
29570;SDS011;16814;52.118;11.436;2022-11-20T01:31:25;33.53;;;16.30;;
29570;SDS011;16814;52.118;11.436;2022-11-20T01:33:54;30.92;;;16.08;;
29570;SDS011;16814;52.118;11.436;2022-11-20T01:36:23;31.35;;;16.55;;
29570;SDS011;16814;52.118;11.436;2022-11-20T01:38:52;31.60;;;16.25;;
29570;SDS011;16814;52.118;11.436;2022-11-20T01:41:24;31.33;;;15.15;;
29570;SDS011;16814;52.118;11.436;2022-11-20T01:44:16;31.30;;;16.52;;
29570;SDS011;16814;52.118;11.436;2022-11-20T01:46:57;32.58;;;16.88;;
29570;SDS011;16814;52.118;11.436;2022-11-20T01:52:20;30.58;;;16.38;;
29570;SDS011;16814;52.118;11.436;2022-11-20T01:55:07;31.88;;;16.30;;
29570;SDS011;16814;52.118;11.436;2022-11-20T01:57:36;34.83;;;17.15;;
29570;SDS011;16814;52.118;11.436;2022-11-20T02:00:10;30.73;;;16.23;;
29570;SDS011;16814;52.118;11.436;2022-11-20T02:02:39;28.17;;;15.20;;
29570;SDS011;16814;52.118;11.436;2022-11-20T02:07:54;31.83;;;16.17;;
29570;SDS011;16814;52.118;11.436;2022-11-20T02:10:22;31.27;;;15.80;;
29570;SDS011;16814;52.118;11.436;2022-11-20T02:12:51;28.75;;;15.15;;
29570;SDS011;16814;52.118;11.436;2022-11-20T02:15:39;31.02;;;15.02;;
29570;SDS011;16814;52.118;11.436;2022-11-20T02:18:09;30.42;;;16.00;;
29570;SDS011;16814;52.118;11.436;2022-11-20T02:20:36;31.55;;;15.55;;
29570;SDS011;16814;52.118;11.436;2022-11-20T02:23:08;30.63;;;15.23;;
29570;SDS011;16814;52.118;11.436;2022-11-20T02:25:42;31.85;;;15.88;;
29570;SDS011;16814;52.118;11.436;2022-11-20T02:28:11;31.90;;;15.52;;
29570;SDS011;16814;52.118;11.436;2022-11-20T02:30:36;30.80;;;15.23;;
29570;SDS011;16814;52.118;11.436;2022-11-20T02:33:03;30.77;;;15.53;;
29570;SDS011;16814;52.118;11.436;2022-11-20T02:38:01;33.13;;;16.50;;
29570;SDS011;16814;52.118;11.436;2022-11-20T02:40:28;31.13;;;16.15;;
29570;SDS011;16814;52.118;11.436;2022-11-20T02:42:55;29.27;;;15.50;;
29570;SDS011;16814;52.118;11.436;2022-11-20T02:45:23;34.83;;;17.52;;
29570;SDS011;16814;52.118;11.436;2022-11-20T02:47:51;32.95;;;16.20;;
29570;SDS011;16814;52.118;11.436;2022-11-20T02:50:18;37.90;;;17.25;;
29570;SDS011;16814;52.118;11.436;2022-11-20T02:52:45;30.63;;;16.20;;
29570;SDS011;16814;52.118;11.436;2022-11-20T02:55:13;29.65;;;16.15;;
29570;SDS011;16814;52.118;11.436;2022-11-20T02:57:39;32.25;;;15.82;;
29570;SDS011;16814;52.118;11.436;2022-11-20T03:00:06;30.65;;;15.45;;
29570;SDS011;16814;52.118;11.436;2022-11-20T03:02:32;30.63;;;16.73;;
29570;SDS011;16814;52.118;11.436;2022-11-20T03:04:58;34.50;;;17.20;;
29570;SDS011;16814;52.118;11.436;2022-11-20T03:07:24;30.90;;;16.30;;
29570;SDS011;16814;52.118;11.436;2022-11-20T03:09:51;30.50;;;16.63;;
29570;SDS011;16814;52.118;11.436;2022-11-20T03:12:16;32.95;;;17.85;;
29570;SDS011;16814;52.118;11.436;2022-11-20T03:14:44;29.55;;;16.50;;
29570;SDS011;16814;52.118;11.436;2022-11-20T03:17:10;30.30;;;16.20;;
29570;SDS011;16814;52.118;11.436;2022-11-20T03:19:37;27.98;;;14.88;;
29570;SDS011;16814;52.118;11.436;2022-11-20T03:22:02;27.83;;;15.27;;
29570;SDS011;16814;52.118;11.436;2022-11-20T03:24:29;27.67;;;14.27;;
29570;SDS011;16814;52.118;11.436;2022-11-20T03:26:55;26.48;;;14.25;;
29570;SDS011;16814;52.118;11.436;2022-11-20T03:29:20;27.60;;;15.20;;
29570;SDS011;16814;52.118;11.436;2022-11-20T03:31:48;27.25;;;15.30;;
29570;SDS011;16814;52.118;11.436;2022-11-20T03:34:15;27.67;;;15.05;;
29570;SDS011;16814;52.118;11.436;2022-11-20T03:36:41;26.52;;;14.95;;
29570;SDS011;16814;52.118;11.436;2022-11-20T03:39:09;28.77;;;14.77;;
29570;SDS011;16814;52.118;11.436;2022-11-20T03:41:39;25.65;;;14.52;;
29570;SDS011;16814;52.118;11.436;2022-11-20T03:44:08;24.50;;;14.23;;
29570;SDS011;16814;52.118;11.436;2022-11-20T03:46:36;29.67;;;15.57;;
29570;SDS011;16814;52.118;11.436;2022-11-20T03:49:04;28.40;;;15.48;;
29570;SDS011;16814;52.118;11.436;2022-11-20T03:51:32;25.70;;;15.50;;
29570;SDS011;16814;52.118;11.436;2022-11-20T03:54:04;27.08;;;15.27;;
29570;SDS011;16814;52.118;11.436;2022-11-20T03:56:38;25.13;;;15.30;;
29570;SDS011;16814;52.118;11.436;2022-11-20T03:59:05;24.52;;;14.48;;
29570;SDS011;16814;52.118;11.436;2022-11-20T04:01:33;26.58;;;14.68;;
29570;SDS011;16814;52.118;11.436;2022-11-20T04:04:00;28.15;;;15.23;;
29570;SDS011;16814;52.118;11.436;2022-11-20T04:06:28;26.67;;;15.30;;
29570;SDS011;16814;52.118;11.436;2022-11-20T04:08:56;26.80;;;14.70;;
29570;SDS011;16814;52.118;11.436;2022-11-20T04:11:26;27.13;;;14.65;;
29570;SDS011;16814;52.118;11.436;2022-11-20T04:13:59;25.25;;;14.02;;
29570;SDS011;16814;52.118;11.436;2022-11-20T04:16:29;24.25;;;14.60;;
29570;SDS011;16814;52.118;11.436;2022-11-20T04:18:59;26.58;;;13.50;;
29570;SDS011;16814;52.118;11.436;2022-11-20T04:21:29;24.17;;;14.63;;
29570;SDS011;16814;52.118;11.436;2022-11-20T04:23:55;24.42;;;14.27;;
29570;SDS011;16814;52.118;11.436;2022-11-20T04:26:23;25.90;;;13.25;;
29570;SDS011;16814;52.118;11.436;2022-11-20T04:28:51;25.67;;;14.10;;
29570;SDS011;16814;52.118;11.436;2022-11-20T04:31:21;26.20;;;14.23;;
29570;SDS011;16814;52.118;11.436;2022-11-20T04:33:51;26.13;;;14.05;;
29570;SDS011;16814;52.118;11.436;2022-11-20T04:36:17;24.80;;;13.68;;
29570;SDS011;16814;52.118;11.436;2022-11-20T04:38:52;25.23;;;13.55;;
29570;SDS011;16814;52.118;11.436;2022-11-20T04:41:22;28.67;;;15.20;;
29570;SDS011;16814;52.118;11.436;2022-11-20T04:43:51;28.83;;;14.43;;
29570;SDS011;16814;52.118;11.436;2022-11-20T04:46:24;28.05;;;15.13;;
29570;SDS011;16814;52.118;11.436;2022-11-20T04:48:53;25.60;;;14.23;;
29570;SDS011;16814;52.118;11.436;2022-11-20T04:51:18;24.08;;;13.45;;
29570;SDS011;16814;52.118;11.436;2022-11-20T04:53:44;27.15;;;13.82;;
29570;SDS011;16814;52.118;11.436;2022-11-20T04:56:11;24.25;;;12.90;;
29570;SDS011;16814;52.118;11.436;2022-11-20T04:58:39;28.23;;;13.20;;
29570;SDS011;16814;52.118;11.436;2022-11-20T05:01:15;23.23;;;13.32;;
29570;SDS011;16814;52.118;11.436;2022-11-20T05:03:43;25.25;;;14.02;;
29570;SDS011;16814;52.118;11.436;2022-11-20T05:06:14;25.27;;;14.23;;
29570;SDS011;16814;52.118;11.436;2022-11-20T05:08:44;24.80;;;14.18;;
29570;SDS011;16814;52.118;11.436;2022-11-20T05:11:12;25.55;;;14.55;;
29570;SDS011;16814;52.118;11.436;2022-11-20T05:13:40;27.10;;;14.48;;
29570;SDS011;16814;52.118;11.436;2022-11-20T05:16:09;24.83;;;14.15;;
29570;SDS011;16814;52.118;11.436;2022-11-20T05:18:38;24.13;;;13.35;;
29570;SDS011;16814;52.118;11.436;2022-11-20T05:21:06;23.52;;;13.13;;
29570;SDS011;16814;52.118;11.436;2022-11-20T05:23:35;25.58;;;13.90;;
29570;SDS011;16814;52.118;11.436;2022-11-20T05:26:04;23.77;;;13.02;;
29570;SDS011;16814;52.118;11.436;2022-11-20T05:28:31;25.60;;;12.95;;
29570;SDS011;16814;52.118;11.436;2022-11-20T05:31:10;24.48;;;13.10;;
29570;SDS011;16814;52.118;11.436;2022-11-20T05:33:39;28.30;;;13.20;;
29570;SDS011;16814;52.118;11.436;2022-11-20T05:36:09;33.67;;;13.40;;
29570;SDS011;16814;52.118;11.436;2022-11-20T05:38:38;24.50;;;13.07;;
29570;SDS011;16814;52.118;11.436;2022-11-20T05:41:05;25.65;;;14.00;;
29570;SDS011;16814;52.118;11.436;2022-11-20T05:43:33;24.13;;;13.18;;
29570;SDS011;16814;52.118;11.436;2022-11-20T05:46:00;23.10;;;13.75;;
29570;SDS011;16814;52.118;11.436;2022-11-20T05:48:26;23.77;;;13.18;;
29570;SDS011;16814;52.118;11.436;2022-11-20T05:50:56;23.55;;;12.93;;
29570;SDS011;16814;52.118;11.436;2022-11-20T05:53:24;22.27;;;12.45;;
29570;SDS011;16814;52.118;11.436;2022-11-20T05:56:05;20.73;;;11.90;;
29570;SDS011;16814;52.118;11.436;2022-11-20T05:58:32;20.02;;;11.98;;
29570;SDS011;16814;52.118;11.436;2022-11-20T06:01:13;21.13;;;12.25;;
29570;SDS011;16814;52.118;11.436;2022-11-20T06:03:42;21.40;;;12.38;;
29570;SDS011;16814;52.118;11.436;2022-11-20T06:06:17;20.20;;;11.95;;
29570;SDS011;16814;52.118;11.436;2022-11-20T06:08:44;22.58;;;12.98;;
29570;SDS011;16814;52.118;11.436;2022-11-20T06:11:12;22.85;;;12.25;;
29570;SDS011;16814;52.118;11.436;2022-11-20T06:13:39;20.83;;;12.60;;
29570;SDS011;16814;52.118;11.436;2022-11-20T06:16:09;26.27;;;12.73;;
29570;SDS011;16814;52.118;11.436;2022-11-20T06:18:38;19.83;;;11.68;;
29570;SDS011;16814;52.118;11.436;2022-11-20T06:21:08;25.10;;;13.10;;
29570;SDS011;16814;52.118;11.436;2022-11-20T06:23:45;27.35;;;12.48;;
29570;SDS011;16814;52.118;11.436;2022-11-20T06:26:21;22.70;;;11.90;;
29570;SDS011;16814;52.118;11.436;2022-11-20T06:28:49;25.05;;;12.38;;
29570;SDS011;16814;52.118;11.436;2022-11-20T06:31:17;24.92;;;12.05;;
29570;SDS011;16814;52.118;11.436;2022-11-20T06:33:48;20.10;;;11.57;;
29570;SDS011;16814;52.118;11.436;2022-11-20T06:36:15;23.73;;;12.07;;
29570;SDS011;16814;52.118;11.436;2022-11-20T06:38:43;22.98;;;11.60;;
29570;SDS011;16814;52.118;11.436;2022-11-20T06:41:11;22.33;;;12.05;;
29570;SDS011;16814;52.118;11.436;2022-11-20T06:43:41;23.98;;;11.70;;
29570;SDS011;16814;52.118;11.436;2022-11-20T06:46:09;22.70;;;11.63;;
29570;SDS011;16814;52.118;11.436;2022-11-20T06:48:36;19.67;;;11.15;;
29570;SDS011;16814;52.118;11.436;2022-11-20T06:51:04;20.90;;;12.27;;
29570;SDS011;16814;52.118;11.436;2022-11-20T06:53:33;23.33;;;12.57;;
29570;SDS011;16814;52.118;11.436;2022-11-20T06:56:00;24.15;;;12.25;;
29570;SDS011;16814;52.118;11.436;2022-11-20T06:58:30;21.55;;;12.10;;
29570;SDS011;16814;52.118;11.436;2022-11-20T07:01:07;22.60;;;12.23;;
29570;SDS011;16814;52.118;11.436;2022-11-20T07:03:40;31.77;;;11.48;;
29570;SDS011;16814;52.118;11.436;2022-11-20T07:06:07;23.88;;;11.88;;
29570;SDS011;16814;52.118;11.436;2022-11-20T07:08:33;23.55;;;12.35;;
29570;SDS011;16814;52.118;11.436;2022-11-20T07:11:03;22.83;;;11.68;;
29570;SDS011;16814;52.118;11.436;2022-11-20T07:13:32;21.88;;;11.80;;
29570;SDS011;16814;52.118;11.436;2022-11-20T07:16:01;23.70;;;11.98;;
29570;SDS011;16814;52.118;11.436;2022-11-20T07:18:30;23.30;;;12.38;;
29570;SDS011;16814;52.118;11.436;2022-11-20T07:21:04;21.30;;;11.43;;
29570;SDS011;16814;52.118;11.436;2022-11-20T07:23:32;23.40;;;12.02;;
29570;SDS011;16814;52.118;11.436;2022-11-20T07:26:08;24.10;;;12.17;;
29570;SDS011;16814;52.118;11.436;2022-11-20T07:28:37;20.88;;;11.25;;
29570;SDS011;16814;52.118;11.436;2022-11-20T07:31:03;22.52;;;11.35;;
29570;SDS011;16814;52.118;11.436;2022-11-20T07:33:33;21.23;;;11.47;;
29570;SDS011;16814;52.118;11.436;2022-11-20T07:36:00;27.07;;;11.40;;
29570;SDS011;16814;52.118;11.436;2022-11-20T07:38:28;54.75;;;13.65;;
29570;SDS011;16814;52.118;11.436;2022-11-20T07:40:57;33.30;;;13.02;;
29570;SDS011;16814;52.118;11.436;2022-11-20T07:43:26;22.27;;;12.23;;
29570;SDS011;16814;52.118;11.436;2022-11-20T07:45:55;21.23;;;11.35;;
29570;SDS011;16814;52.118;11.436;2022-11-20T07:48:23;19.92;;;11.35;;
29570;SDS011;16814;52.118;11.436;2022-11-20T07:50:49;15.90;;;10.15;;
29570;SDS011;16814;52.118;11.436;2022-11-20T07:53:15;23.13;;;11.43;;
29570;SDS011;16814;52.118;11.436;2022-11-20T07:55:45;24.10;;;11.10;;
29570;SDS011;16814;52.118;11.436;2022-11-20T07:58:12;23.05;;;11.30;;
29570;SDS011;16814;52.118;11.436;2022-11-20T08:00:39;18.25;;;10.77;;
29570;SDS011;16814;52.118;11.436;2022-11-20T08:03:06;20.45;;;10.52;;
29570;SDS011;16814;52.118;11.436;2022-11-20T08:05:34;18.73;;;11.27;;
29570;SDS011;16814;52.118;11.436;2022-11-20T08:08:03;19.80;;;11.00;;
29570;SDS011;16814;52.118;11.436;2022-11-20T08:10:30;26.15;;;12.00;;
29570;SDS011;16814;52.118;11.436;2022-11-20T08:12:55;28.53;;;11.47;;
29570;SDS011;16814;52.118;11.436;2022-11-20T08:15:39;24.07;;;10.90;;
29570;SDS011;16814;52.118;11.436;2022-11-20T08:18:08;23.27;;;10.57;;
29570;SDS011;16814;52.118;11.436;2022-11-20T08:20:36;35.30;;;11.32;;
29570;SDS011;16814;52.118;11.436;2022-11-20T08:23:12;26.23;;;10.50;;
29570;SDS011;16814;52.118;11.436;2022-11-20T08:25:40;41.03;;;11.37;;
29570;SDS011;16814;52.118;11.436;2022-11-20T08:28:08;33.70;;;10.23;;
29570;SDS011;16814;52.118;11.436;2022-11-20T08:30:36;28.52;;;10.65;;
29570;SDS011;16814;52.118;11.436;2022-11-20T08:33:03;23.63;;;10.30;;
29570;SDS011;16814;52.118;11.436;2022-11-20T08:35:34;29.27;;;10.15;;
29570;SDS011;16814;52.118;11.436;2022-11-20T08:38:02;18.70;;;9.23;;
29570;SDS011;16814;52.118;11.436;2022-11-20T08:40:30;25.17;;;9.57;;
29570;SDS011;16814;52.118;11.436;2022-11-20T08:42:57;16.25;;;8.95;;
29570;SDS011;16814;52.118;11.436;2022-11-20T08:45:25;17.65;;;9.70;;
29570;SDS011;16814;52.118;11.436;2022-11-20T08:47:52;18.50;;;9.27;;
29570;SDS011;16814;52.118;11.436;2022-11-20T08:50:17;18.85;;;8.65;;
29570;SDS011;16814;52.118;11.436;2022-11-20T08:52:45;16.35;;;8.38;;
29570;SDS011;16814;52.118;11.436;2022-11-20T08:55:10;17.48;;;8.70;;
29570;SDS011;16814;52.118;11.436;2022-11-20T08:57:38;18.70;;;9.27;;
29570;SDS011;16814;52.118;11.436;2022-11-20T09:00:05;19.45;;;8.88;;
29570;SDS011;16814;52.118;11.436;2022-11-20T09:02:33;14.68;;;8.70;;
29570;SDS011;16814;52.118;11.436;2022-11-20T09:04:59;15.10;;;8.27;;
29570;SDS011;16814;52.118;11.436;2022-11-20T09:07:27;14.65;;;8.50;;
29570;SDS011;16814;52.118;11.436;2022-11-20T09:09:56;13.98;;;7.88;;
29570;SDS011;16814;52.118;11.436;2022-11-20T09:12:23;13.65;;;8.30;;
29570;SDS011;16814;52.118;11.436;2022-11-20T09:14:50;15.77;;;8.53;;
29570;SDS011;16814;52.118;11.436;2022-11-20T09:17:18;15.80;;;9.00;;
29570;SDS011;16814;52.118;11.436;2022-11-20T09:19:46;16.65;;;8.65;;
29570;SDS011;16814;52.118;11.436;2022-11-20T09:22:13;16.75;;;9.05;;
29570;SDS011;16814;52.118;11.436;2022-11-20T09:24:39;14.90;;;8.15;;
29570;SDS011;16814;52.118;11.436;2022-11-20T09:27:07;14.02;;;8.18;;
29570;SDS011;16814;52.118;11.436;2022-11-20T09:29:36;14.45;;;7.70;;
29570;SDS011;16814;52.118;11.436;2022-11-20T09:32:02;11.57;;;6.63;;
29570;SDS011;16814;52.118;11.436;2022-11-20T09:34:27;16.57;;;8.10;;
29570;SDS011;16814;52.118;11.436;2022-11-20T09:36:55;15.88;;;8.93;;
29570;SDS011;16814;52.118;11.436;2022-11-20T09:39:22;16.83;;;8.80;;
29570;SDS011;16814;52.118;11.436;2022-11-20T09:42:05;15.13;;;8.93;;
29570;SDS011;16814;52.118;11.436;2022-11-20T09:45:18;15.70;;;9.52;;
29570;SDS011;16814;52.118;11.436;2022-11-20T09:50:40;14.25;;;8.40;;
29570;SDS011;16814;52.118;11.436;2022-11-20T09:56:23;14.55;;;8.20;;
29570;SDS011;16814;52.118;11.436;2022-11-20T09:58:52;16.77;;;9.15;;
29570;SDS011;16814;52.118;11.436;2022-11-20T10:01:22;16.38;;;8.20;;
29570;SDS011;16814;52.118;11.436;2022-11-20T10:04:04;14.18;;;8.38;;
29570;SDS011;16814;52.118;11.436;2022-11-20T10:07:04;13.95;;;8.07;;
29570;SDS011;16814;52.118;11.436;2022-11-20T10:09:49;12.27;;;6.97;;
29570;SDS011;16814;52.118;11.436;2022-11-20T10:12:23;13.13;;;6.95;;
29570;SDS011;16814;52.118;11.436;2022-11-20T10:18:02;11.63;;;6.70;;
29570;SDS011;16814;52.118;11.436;2022-11-20T10:20:57;11.77;;;6.72;;
29570;SDS011;16814;52.118;11.436;2022-11-20T10:23:51;12.88;;;6.75;;
29570;SDS011;16814;52.118;11.436;2022-11-20T10:26:27;16.83;;;6.53;;
29570;SDS011;16814;52.118;11.436;2022-11-20T10:29:14;9.32;;;5.80;;
29570;SDS011;16814;52.118;11.436;2022-11-20T10:31:45;14.13;;;5.40;;
29570;SDS011;16814;52.118;11.436;2022-11-20T10:37:09;10.95;;;5.78;;
29570;SDS011;16814;52.118;11.436;2022-11-20T10:42:16;11.90;;;5.90;;
29570;SDS011;16814;52.118;11.436;2022-11-20T10:50:34;9.68;;;5.85;;
29570;SDS011;16814;52.118;11.436;2022-11-20T10:56:07;9.77;;;5.55;;
29570;SDS011;16814;52.118;11.436;2022-11-20T11:01:43;15.37;;;7.87;;
29570;SDS011;16814;52.118;11.436;2022-11-20T11:04:18;14.97;;;7.07;;
29570;SDS011;16814;52.118;11.436;2022-11-20T11:07:22;7.03;;;4.40;;
29570;SDS011;16814;52.118;11.436;2022-11-20T11:09:55;8.70;;;5.25;;
29570;SDS011;16814;52.118;11.436;2022-11-20T11:12:22;10.00;;;5.65;;
29570;SDS011;16814;52.118;11.436;2022-11-20T11:14:54;11.97;;;7.53;;
29570;SDS011;16814;52.118;11.436;2022-11-20T11:17:33;17.95;;;9.63;;
29570;SDS011;16814;52.118;11.436;2022-11-20T11:20:19;6.72;;;5.05;;
29570;SDS011;16814;52.118;11.436;2022-11-20T11:22:56;8.73;;;4.57;;
29570;SDS011;16814;52.118;11.436;2022-11-20T11:25:27;8.18;;;4.60;;
29570;SDS011;16814;52.118;11.436;2022-11-20T11:28:22;8.38;;;4.75;;
29570;SDS011;16814;52.118;11.436;2022-11-20T11:30:51;12.55;;;5.20;;
29570;SDS011;16814;52.118;11.436;2022-11-20T11:33:26;8.95;;;5.18;;
29570;SDS011;16814;52.118;11.436;2022-11-20T11:36:05;7.57;;;5.15;;
29570;SDS011;16814;52.118;11.436;2022-11-20T11:38:45;8.88;;;5.28;;
29570;SDS011;16814;52.118;11.436;2022-11-20T11:41:20;10.25;;;6.30;;
29570;SDS011;16814;52.118;11.436;2022-11-20T11:43:56;8.60;;;5.90;;
29570;SDS011;16814;52.118;11.436;2022-11-20T11:46:53;8.90;;;5.93;;
29570;SDS011;16814;52.118;11.436;2022-11-20T11:49:24;19.25;;;11.43;;
29570;SDS011;16814;52.118;11.436;2022-11-20T11:54:53;11.90;;;7.65;;
29570;SDS011;16814;52.118;11.436;2022-11-20T11:57:28;12.20;;;8.10;;
29570;SDS011;16814;52.118;11.436;2022-11-20T12:00:17;12.68;;;7.38;;
29570;SDS011;16814;52.118;11.436;2022-11-20T12:02:53;11.05;;;6.60;;
29570;SDS011;16814;52.118;11.436;2022-11-20T12:05:40;12.43;;;7.03;;
29570;SDS011;16814;52.118;11.436;2022-11-20T12:08:18;10.05;;;6.35;;
29570;SDS011;16814;52.118;11.436;2022-11-20T12:10:56;11.43;;;7.13;;
29570;SDS011;16814;52.118;11.436;2022-11-20T12:16:09;10.82;;;6.82;;
29570;SDS011;16814;52.118;11.436;2022-11-20T12:18:40;16.03;;;10.00;;
29570;SDS011;16814;52.118;11.436;2022-11-20T12:30:15;23.08;;;15.25;;
29570;SDS011;16814;52.118;11.436;2022-11-20T12:39:12;19.38;;;11.15;;
29570;SDS011;16814;52.118;11.436;2022-11-20T12:47:57;16.50;;;9.15;;
29570;SDS011;16814;52.118;11.436;2022-11-20T13:02:27;13.68;;;7.85;;
29570;SDS011;16814;52.118;11.436;2022-11-20T13:08:20;10.10;;;6.63;;
29570;SDS011;16814;52.118;11.436;2022-11-20T13:10:58;9.93;;;6.38;;
29570;SDS011;16814;52.118;11.436;2022-11-20T13:13:40;13.05;;;6.85;;
29570;SDS011;16814;52.118;11.436;2022-11-20T13:19:46;12.23;;;7.18;;
29570;SDS011;16814;52.118;11.436;2022-11-20T13:22:42;12.40;;;6.30;;
29570;SDS011;16814;52.118;11.436;2022-11-20T13:27:54;11.07;;;6.20;;
29570;SDS011;16814;52.118;11.436;2022-11-20T13:30:26;13.88;;;5.82;;
29570;SDS011;16814;52.118;11.436;2022-11-20T13:32:53;12.93;;;5.78;;
29570;SDS011;16814;52.118;11.436;2022-11-20T13:35:31;11.63;;;5.97;;
29570;SDS011;16814;52.118;11.436;2022-11-20T13:38:20;9.30;;;5.65;;
29570;SDS011;16814;52.118;11.436;2022-11-20T13:40:53;11.00;;;5.95;;
29570;SDS011;16814;52.118;11.436;2022-11-20T13:46:05;11.82;;;6.18;;
29570;SDS011;16814;52.118;11.436;2022-11-20T13:48:42;10.25;;;6.00;;
29570;SDS011;16814;52.118;11.436;2022-11-20T13:59:25;12.60;;;7.10;;
29570;SDS011;16814;52.118;11.436;2022-11-20T14:02:17;11.70;;;6.90;;
29570;SDS011;16814;52.118;11.436;2022-11-20T14:04:47;28.52;;;16.02;;
29570;SDS011;16814;52.118;11.436;2022-11-20T14:07:20;19.90;;;12.63;;
29570;SDS011;16814;52.118;11.436;2022-11-20T14:09:53;28.33;;;17.30;;
29570;SDS011;16814;52.118;11.436;2022-11-20T14:12:23;31.30;;;18.30;;
29570;SDS011;16814;52.118;11.436;2022-11-20T14:14:56;27.60;;;16.60;;
29570;SDS011;16814;52.118;11.436;2022-11-20T14:17:32;22.43;;;10.77;;
29570;SDS011;16814;52.118;11.436;2022-11-20T14:20:05;18.50;;;9.18;;
29570;SDS011;16814;52.118;11.436;2022-11-20T14:22:37;20.08;;;10.65;;
29570;SDS011;16814;52.118;11.436;2022-11-20T14:27:38;22.23;;;9.03;;
29570;SDS011;16814;52.118;11.436;2022-11-20T14:30:06;15.88;;;9.27;;
29570;SDS011;16814;52.118;11.436;2022-11-20T14:32:38;20.13;;;9.25;;
29570;SDS011;16814;52.118;11.436;2022-11-20T14:35:09;23.05;;;10.18;;
29570;SDS011;16814;52.118;11.436;2022-11-20T14:37:44;19.92;;;9.75;;
29570;SDS011;16814;52.118;11.436;2022-11-20T14:43:01;19.37;;;9.43;;
29570;SDS011;16814;52.118;11.436;2022-11-20T14:45:50;18.90;;;9.13;;
29570;SDS011;16814;52.118;11.436;2022-11-20T14:48:49;22.88;;;10.45;;
29570;SDS011;16814;52.118;11.436;2022-11-20T14:51:34;24.50;;;10.18;;
29570;SDS011;16814;52.118;11.436;2022-11-20T14:54:21;17.70;;;8.75;;
29570;SDS011;16814;52.118;11.436;2022-11-20T14:56:54;23.73;;;9.03;;
29570;SDS011;16814;52.118;11.436;2022-11-20T14:59:25;24.88;;;10.50;;
29570;SDS011;16814;52.118;11.436;2022-11-20T15:02:05;19.67;;;9.50;;
29570;SDS011;16814;52.118;11.436;2022-11-20T15:04:49;23.47;;;12.33;;
29570;SDS011;16814;52.118;11.436;2022-11-20T15:07:24;26.77;;;13.45;;
29570;SDS011;16814;52.118;11.436;2022-11-20T15:10:01;23.13;;;12.87;;
29570;SDS011;16814;52.118;11.436;2022-11-20T15:12:30;17.00;;;9.23;;
29570;SDS011;16814;52.118;11.436;2022-11-20T15:14:58;17.20;;;9.05;;
29570;SDS011;16814;52.118;11.436;2022-11-20T15:17:25;16.65;;;8.30;;
29570;SDS011;16814;52.118;11.436;2022-11-20T15:19:52;13.13;;;8.10;;
29570;SDS011;16814;52.118;11.436;2022-11-20T15:22:19;16.83;;;8.40;;
29570;SDS011;16814;52.118;11.436;2022-11-20T15:24:45;14.90;;;7.72;;
29570;SDS011;16814;52.118;11.436;2022-11-20T15:27:13;16.08;;;8.52;;
29570;SDS011;16814;52.118;11.436;2022-11-20T15:29:40;14.10;;;8.13;;
29570;SDS011;16814;52.118;11.436;2022-11-20T15:32:08;13.23;;;7.72;;
29570;SDS011;16814;52.118;11.436;2022-11-20T15:34:34;13.10;;;8.03;;
29570;SDS011;16814;52.118;11.436;2022-11-20T15:37:01;13.90;;;7.55;;
29570;SDS011;16814;52.118;11.436;2022-11-20T15:39:30;44.28;;;27.10;;
29570;SDS011;16814;52.118;11.436;2022-11-20T15:41:57;19.02;;;11.90;;
29570;SDS011;16814;52.118;11.436;2022-11-20T15:44:24;13.38;;;8.07;;
29570;SDS011;16814;52.118;11.436;2022-11-20T15:46:50;12.53;;;7.80;;
29570;SDS011;16814;52.118;11.436;2022-11-20T15:49:16;14.23;;;8.07;;
29570;SDS011;16814;52.118;11.436;2022-11-20T15:51:46;12.45;;;7.43;;
29570;SDS011;16814;52.118;11.436;2022-11-20T15:54:18;12.18;;;7.53;;
29570;SDS011;16814;52.118;11.436;2022-11-20T15:56:45;12.68;;;7.03;;
29570;SDS011;16814;52.118;11.436;2022-11-20T15:59:11;14.45;;;7.90;;
29570;SDS011;16814;52.118;11.436;2022-11-20T16:01:41;14.15;;;8.50;;
29570;SDS011;16814;52.118;11.436;2022-11-20T16:04:11;13.57;;;7.77;;
29570;SDS011;16814;52.118;11.436;2022-11-20T16:06:40;15.73;;;9.03;;
29570;SDS011;16814;52.118;11.436;2022-11-20T16:09:09;16.08;;;9.38;;
29570;SDS011;16814;52.118;11.436;2022-11-20T16:11:34;16.25;;;9.88;;
29570;SDS011;16814;52.118;11.436;2022-11-20T16:14:03;16.80;;;10.10;;
29570;SDS011;16814;52.118;11.436;2022-11-20T16:16:49;15.80;;;9.20;;